Currituck, North Carolina
Current Conditions -  °F | °C
As of 10:15 AM on Saturday 25 Oct 2014 (Local Time) from KONX Reporting Station
Clear Clear  
Wind Chill: 60°   Ceiling: Unl
Heat Index: 60°   Visibility: 10mi
Dew Point: 48°   Wind: 8mph
Humidity: 64%   Direction: 10°N
Pressure: 29.99"   Gusts: NA
Location:  36.45°N, 76.02°W
Report Text: KONX 251415Z AUTO 01007KT 10SM CLR 16/09 A2999 RMK AO2 T01560089
Loading
Personal Weather Stations






























Interactive Weather Map
Tropical Storm Tracking
New forecast layout! Learn more

10-Day Weather Forecast

Advertisements
Track Severe Weather on mobile